Nearby METAR Reports

 

KBFI - Seattle/Boeing, Washington, USA
Distance from station: S 10mi, 16km
Updated: Sun, 17-Feb-2019 12:53pm PST
Light rain, Overcast
Light rain, Overcast
 Wind from WSW
Wind: WSW 5 mph , 7 km/h
Temperature: 41°F , 5°C
Wind Chill: 38°F , 3°C
Dew Point: 36°F , 2°C
Humidity: 81%
Barometer: 30.20 inHg , 1022.7 hPa
Summary: Light rain
Clouds: Overcast
Visibility: 9 miles , 14 km
Cloud details: Partly cloudy 1500 ft
Mostly cloudy 2000 ft
Overcast 3000 ft
2019/02/17 20:53 KBFI 172053Z 25004KT 9SM -RA SCT015 BKN020 OVC030 05/02 A3020 RMK AO2 RAE02B50 SLP227 P0000 60000 T00500017 50013
KRNT - Renton, Washington, USA
Distance from station: SSE 14mi, 23km
Updated: Sun, 17-Feb-2019 12:53pm PST
Overcast
Overcast
 Wind from WNW
Wind: WNW 3 mph , 6 km/h
Temperature: 43°F , 6°C
Dew Point: 36°F , 2°C
Humidity: 76%
Barometer: 30.20 inHg , 1022.7 hPa
Clouds: Overcast
Visibility: 10 miles , 16 km
Cloud details: Overcast 4400 ft
2019/02/17 20:53 KRNT 172053Z 30003KT 10SM OVC044 06/02 A3020 RMK AO2 SLP232 T00560017 51013
 
KPAE - Everett, Washington, USA
Distance from station: N 15mi, 25km
Updated: Sun, 17-Feb-2019 12:53pm PST
Mostly cloudy
Mostly cloudy
 Wind from NNW
Wind: NNW 8 mph , 13 km/h
Temperature: 41°F , 5°C
Wind Chill: 36°F , 2°C
Dew Point: 34°F , 1°C
Humidity: 76%
Barometer: 30.18 inHg , 1022 hPa
Clouds: Mostly cloudy
Visibility: 10 miles , 16 km
Cloud details: Partly cloudy 1300 ft
Mostly cloudy 3000 ft
2019/02/17 20:53 KPAE 172053Z 34007KT 10SM SCT013 BKN030 05/01 A3018 RMK AO2 SLP226 T00500006 52006
KSEA - Seattle/Metro, Washington, USA
Distance from station: S 17mi, 27km
Updated: Sun, 17-Feb-2019 1:15pm PST
Light rain, Overcast
Light rain, Overcast
 Wind from NNW
Wind: NNW 6 mph , 9 km/h
Temperature: 41°F , 5°C
Wind Chill: 37°F , 3°C
Dew Point: 36°F , 2°C
Humidity: 81%
Barometer: 30.19 inHg , 1022.4 hPa
Summary: Light rain
Clouds: Overcast
Visibility: 5 miles , 8 km
Cloud details: Partly cloudy 1700 ft
Mostly cloudy 2200 ft
Overcast 3500 ft
2019/02/17 21:15 KSEA 172115Z 33005KT 5SM -RA SCT017 BKN022 OVC035 05/02 A3019 RMK AO2 RAB11 P0000 T00500017
 
KPWT - Bremerton Ntnl, Washington, USA
Distance from station: SW 24mi, 39km
Updated: Sun, 17-Feb-2019 12:56pm PST
Mostly cloudy
Mostly cloudy
 Wind from NE
Wind: NE 7 mph , 11 km/h
Temperature: 39°F , 4°C
Wind Chill: 34°F , 1°C
Dew Point: 36°F , 2°C
Humidity: 87%
Barometer: 30.19 inHg , 1022.4 hPa
Clouds: Mostly cloudy
Visibility: 10 miles , 16 km
Cloud details: Few Clouds 1200 ft
Mostly cloudy 2000 ft
Mostly cloudy 2600 ft
2019/02/17 20:56 KPWT 172056Z AUTO 05006KT 10SM FEW012 BKN020 BKN026 04/02 A3019 RMK AO2 RAE15 SLP241 P0000 60000 T00440017 50005
KTIW - Tacoma, Washington, USA
Distance from station: SSW 32mi, 52km
Updated: Sun, 17-Feb-2019 1:00pm PST
Overcast
Overcast
 Wind from calm
Wind: Calm
Temperature: 37°F , 3°C
Dew Point: 36°F , 2°C
Humidity: 93%
Barometer: 30.20 inHg , 1022.7 hPa
Clouds: Overcast
Visibility: 10 miles , 16 km
Cloud details: Mostly cloudy 700 ft
Mostly cloudy 1100 ft
Overcast 2700 ft
2019/02/17 21:00 KTIW 172100Z 00000KT 10SM BKN007 BKN011 OVC027 03/02 A3020 RMK AO2 T00280017
 
KAWO - Arlington Muni, Washington, USA
Distance from station: N 33mi, 54km
Updated: Sun, 17-Feb-2019 12:56pm PST
Mostly cloudy
Mostly cloudy
 Wind from calm
Wind: Calm
Temperature: 41°F , 5°C
Dew Point: 30°F , -1°C
Humidity: 66%
Barometer: 30.20 inHg , 1022.7 hPa
Clouds: Mostly cloudy
Visibility: 10 miles , 16 km
Cloud details: Mostly cloudy 3400 ft
2019/02/17 20:56 KAWO 172056Z AUTO 00000KT 10SM BKN034 05/M01 A3020 RMK AO2 SLP231 T00501006 51010
KTCM - Tacoma/Mc Chord, Washington, USA
Distance from station: S 41mi, 65km
Updated: Sun, 17-Feb-2019 1:11pm PST
Light rain, Overcast
Light rain, Overcast
 Wind from calm
Wind: Calm
Temperature: 39°F , 4°C
Dew Point: 39°F , 4°C
Humidity: 100%
Barometer: 30.20 inHg , 1022.7 hPa
Summary: Light rain
Clouds: Overcast
Visibility: 10 miles , 16 km
Cloud details: Overcast 1300 ft
2019/02/17 21:11 KTCM 172111Z AUTO 00000KT 10SM -RA OVC013 04/04 A3020 RMK AO2 RAB11 SLP234 $
 
KPLU - Puyallup/Thun, Washington, USA
Distance from station: S 41mi, 66km
Updated: Sun, 17-Feb-2019 1:15pm PST
Overcast
Overcast
 Wind from calm
Wind: Calm
Temperature: 41°F , 5°C
Dew Point: 37°F , 3°C
Humidity: 87%
Barometer: 30.19 inHg , 1022.4 hPa
Clouds: Overcast
Visibility: 10 miles , 16 km
Cloud details: Few Clouds 1200 ft
Overcast 2100 ft
2019/02/17 21:15 KPLU 172115Z AUTO 00000KT 10SM FEW012 OVC021 05/03 A3019 RMK AO2
KGRF - Fort Lewis/Gray, Washington, USA
Distance from station: SSW 45mi, 72km
Updated: Sun, 17-Feb-2019 1:16pm PST
Overcast
Overcast
 Wind from calm
Wind: Calm
Temperature: 37°F , 3°C
Dew Point: 37°F , 3°C
Humidity: 100%
Barometer: 30.20 inHg , 1022.7 hPa
Clouds: Overcast
Visibility: 10 miles , 16 km
Cloud details: Mostly cloudy 900 ft
Overcast 2400 ft
2019/02/17 21:16 KGRF 172116Z 00000KT 10SM BKN009 OVC024 03/03 A3020 RMK AO2A SLP234 $
 
KNUW - Whidbey Is. Nas, Washington, USA
Distance from station: NNW 48mi, 77km
Updated: Sun, 17-Feb-2019 12:56pm PST
Mostly cloudy
Mostly cloudy
 Wind from NNW
Wind: NNW 15 mph , 24 km/h
Temperature: 48°F , 9°C
Wind Chill: 42°F , 6°C
Dew Point: 34°F , 1°C
Humidity: 58%
Barometer: 30.25 inHg , 1024.4 hPa
Clouds: Mostly cloudy
Visibility: 10 miles , 16 km
Cloud details: Few Clouds 2500 ft
Partly cloudy 3000 ft
Mostly cloudy 5000 ft
Mostly cloudy 22000 ft
2019/02/17 20:56 KNUW 172056Z 33013KT 10SM FEW025 SCT030 BKN050 BKN220 09/01 A3025 RMK AO2 SLP242 T00890011 51013 $
KSHN - Shelton, Washington, USA
Distance from station: SW 50mi, 80km
Updated: Sun, 17-Feb-2019 1:22pm PST
Overcast
Overcast
 Wind from calm
Wind: Calm
Temperature: 37°F , 3°C
Dew Point: 34°F , 1°C
Humidity: 87%
Barometer: 30.19 inHg , 1022.4 hPa
Clouds: Overcast
Visibility: 10 miles , 16 km
Cloud details: Overcast 3000 ft
2019/02/17 21:22 KSHN 172122Z AUTO 00000KT 10SM OVC030 03/01 A3019 RMK AO2 T00330011